createdAt,value
2023-05-21T00:00:27.744Z,100.00
2023-05-21T00:02:56.408Z,100.00
2023-05-21T00:05:26.771Z,100.00
2023-05-21T00:07:56.127Z,100.00
2023-05-21T00:10:24.696Z,100.00
2023-05-21T00:12:53.437Z,100.00
2023-05-21T00:15:22.014Z,100.00
2023-05-21T00:17:50.728Z,100.00
2023-05-21T00:20:19.374Z,100.00
2023-05-21T00:22:49.405Z,100.00
2023-05-21T00:25:18.105Z,100.00
2023-05-21T00:27:46.688Z,100.00
2023-05-21T00:30:16.456Z,100.00
2023-05-21T00:32:45.227Z,100.00
2023-05-21T00:35:14.180Z,100.00
2023-05-21T00:37:42.947Z,100.00
2023-05-21T00:40:14.114Z,100.00
2023-05-21T00:42:42.541Z,100.00
2023-05-21T00:45:11.571Z,100.00
2023-05-21T00:47:42.011Z,100.00
2023-05-21T00:50:12.324Z,100.00
2023-05-21T00:52:42.990Z,100.00
2023-05-21T00:55:13.576Z,100.00
2023-05-21T00:57:43.013Z,100.00
2023-05-21T01:00:13.039Z,100.00
2023-05-21T01:02:42.375Z,100.00
2023-05-21T01:05:12.038Z,100.00
2023-05-21T01:07:42.798Z,100.00
2023-05-21T01:10:13.607Z,100.00
2023-05-21T01:12:45.248Z,100.00
2023-05-21T01:15:14.418Z,100.00
2023-05-21T01:17:46.285Z,100.00
2023-05-21T01:20:18.495Z,100.00
2023-05-21T01:22:54.503Z,100.00
2023-05-21T01:25:24.396Z,100.00
2023-05-21T01:27:53.394Z,100.00
2023-05-21T01:30:23.698Z,100.00
2023-05-21T01:33:02.123Z,100.00
2023-05-21T01:35:35.171Z,100.00
2023-05-21T01:38:13.753Z,100.00
2023-05-21T01:40:49.295Z,100.00
2023-05-21T01:43:18.829Z,100.00
2023-05-21T01:45:48.981Z,100.00
2023-05-21T01:48:18.931Z,100.00
2023-05-21T01:50:48.908Z,100.00
2023-05-21T01:53:18.995Z,100.00
2023-05-21T01:55:47.650Z,100.00
2023-05-21T01:58:17.190Z,100.00
2023-05-21T02:00:46.887Z,100.00
2023-05-21T02:03:16.728Z,100.00
2023-05-21T02:05:45.734Z,100.00
2023-05-21T02:08:15.505Z,100.00
2023-05-21T02:10:45.680Z,100.00
2023-05-21T02:13:14.461Z,100.00
2023-05-21T02:15:43.401Z,100.00
2023-05-21T02:18:12.031Z,100.00
2023-05-21T02:20:40.769Z,100.00
2023-05-21T02:23:09.379Z,100.00
2023-05-21T02:25:38.333Z,100.00
2023-05-21T02:28:08.585Z,100.00
2023-05-21T02:30:37.391Z,100.00
2023-05-21T02:33:06.091Z,100.00
2023-05-21T02:35:35.472Z,100.00
2023-05-21T02:38:04.153Z,100.00
2023-05-21T02:40:33.398Z,100.00
2023-05-21T02:43:01.945Z,100.00
2023-05-21T02:45:34.701Z,100.00
2023-05-21T02:48:03.398Z,100.00
2023-05-21T02:50:36.320Z,100.00
2023-05-21T02:53:05.032Z,100.00
2023-05-21T02:55:34.444Z,100.00
2023-05-21T02:58:03.747Z,100.00
2023-05-21T03:00:34.027Z,100.00
2023-05-21T03:03:02.950Z,100.00
2023-05-21T03:05:31.901Z,100.00
2023-05-21T03:08:00.533Z,100.00
2023-05-21T03:10:29.186Z,100.00
2023-05-21T03:12:57.852Z,100.00
2023-05-21T03:15:26.468Z,100.00
2023-05-21T03:17:57.331Z,100.00
2023-05-21T03:20:27.111Z,100.00
2023-05-21T03:22:56.281Z,100.00
2023-05-21T03:25:25.464Z,100.00
2023-05-21T03:27:56.013Z,100.00
2023-05-21T03:30:49.884Z,100.00
2023-05-21T03:33:35.160Z,100.00
2023-05-21T03:36:13.052Z,100.00
2023-05-21T03:38:41.709Z,100.00
2023-05-21T03:41:11.771Z,100.00
2023-05-21T03:43:42.153Z,100.00
2023-05-21T03:46:10.924Z,100.00
2023-05-21T03:49:05.092Z,100.00
2023-05-21T03:51:35.347Z,100.00
2023-05-21T03:54:04.148Z,100.00
2023-05-21T03:56:33.538Z,100.00
2023-05-21T03:59:02.666Z,100.00
2023-05-21T04:01:33.246Z,100.00
2023-05-21T04:04:03.027Z,100.00
2023-05-21T04:06:33.341Z,100.00
2023-05-21T04:09:02.043Z,100.00
2023-05-21T04:11:31.582Z,100.00
2023-05-21T04:14:00.240Z,100.00
2023-05-21T04:16:28.932Z,100.00
2023-05-21T04:18:57.653Z,100.00
2023-05-21T04:21:28.494Z,100.00
2023-05-21T04:23:58.717Z,100.00
2023-05-21T04:26:42.580Z,100.00
2023-05-21T04:29:11.909Z,100.00
2023-05-21T04:31:40.657Z,100.00
2023-05-21T04:34:09.437Z,100.00
2023-05-21T04:36:38.127Z,100.00
2023-05-21T04:39:08.522Z,100.00
2023-05-21T04:41:38.712Z,100.00
2023-05-21T04:44:09.395Z,100.00
2023-05-21T04:46:41.000Z,100.00
2023-05-21T04:49:11.790Z,100.00
2023-05-21T04:51:40.770Z,100.00
2023-05-21T04:54:11.086Z,100.00
2023-05-21T04:56:39.812Z,100.00
2023-05-21T04:59:08.581Z,100.00
2023-05-21T05:01:38.743Z,100.00
2023-05-21T05:04:07.848Z,100.00
2023-05-21T05:06:36.670Z,100.00
2023-05-21T05:09:05.959Z,100.00
2023-05-21T05:11:36.230Z,100.00
2023-05-21T05:14:05.386Z,100.00
2023-05-21T05:16:35.835Z,100.00
2023-05-21T05:19:04.686Z,100.00
2023-05-21T05:21:33.448Z,100.00
2023-05-21T05:24:02.426Z,100.00
2023-05-21T05:26:33.392Z,100.00
2023-05-21T05:29:03.508Z,100.00
2023-05-21T05:31:32.353Z,100.00
2023-05-21T05:34:01.440Z,100.00
2023-05-21T05:36:31.655Z,100.00
2023-05-21T05:39:00.512Z,100.00
2023-05-21T05:41:29.357Z,100.00
2023-05-21T05:43:58.037Z,100.00
2023-05-21T05:46:32.341Z,100.00
2023-05-21T05:49:01.162Z,100.00
2023-05-21T05:51:30.415Z,100.00
2023-05-21T05:53:59.288Z,100.00
2023-05-21T05:56:28.124Z,100.00
2023-05-21T05:58:56.764Z,100.00
2023-05-21T06:01:26.501Z,100.00
2023-05-21T06:03:57.584Z,100.00
2023-05-21T06:06:26.839Z,100.00
2023-05-21T06:08:55.783Z,100.00
2023-05-21T06:11:25.849Z,100.00
2023-05-21T06:13:54.459Z,100.00
2023-05-21T06:16:23.832Z,100.00
2023-05-21T06:18:52.572Z,100.00
2023-05-21T06:21:22.748Z,100.00
2023-05-21T06:23:51.390Z,100.00
2023-05-21T06:26:20.489Z,100.00
2023-05-21T06:28:51.105Z,100.00
2023-05-21T06:31:22.638Z,100.00
2023-05-21T06:33:51.510Z,100.00
2023-05-21T06:36:20.300Z,100.00
2023-05-21T06:38:51.016Z,97.93
2023-05-21T06:41:19.671Z,100.00
2023-05-21T06:43:52.780Z,100.00
2023-05-21T06:46:40.239Z,100.00
2023-05-21T06:49:11.879Z,100.00
2023-05-21T06:51:42.249Z,100.00
2023-05-21T06:54:14.462Z,100.00
2023-05-21T06:56:43.692Z,100.00
2023-05-21T06:59:12.439Z,88.87
2023-05-21T07:01:42.811Z,100.00
2023-05-21T07:04:11.862Z,98.67
2023-05-21T07:06:41.953Z,80.30
2023-05-21T07:09:10.728Z,86.92
2023-05-21T07:11:41.378Z,93.77
2023-05-21T07:14:11.552Z,89.83
2023-05-21T07:16:40.628Z,83.03
2023-05-21T07:19:10.200Z,82.53
2023-05-21T07:21:39.368Z,88.42
2023-05-21T07:24:09.471Z,97.93
2023-05-21T07:26:42.357Z,81.60
2023-05-21T07:29:12.650Z,86.32
2023-05-21T07:31:41.375Z,74.86
2023-05-21T07:34:10.130Z,88.47
2023-05-21T07:36:40.772Z,75.46
2023-05-21T07:39:09.599Z,77.55
2023-05-21T07:41:39.506Z,71.64
2023-05-21T07:44:11.702Z,77.99
2023-05-21T07:46:43.755Z,75.41
2023-05-21T07:49:17.152Z,73.90
2023-05-21T07:51:47.743Z,78.72
2023-05-21T07:54:17.673Z,75.47
2023-05-21T07:56:47.109Z,66.14
2023-05-21T07:59:31.984Z,66.68
2023-05-21T08:02:01.082Z,78.74
2023-05-21T08:04:29.777Z,76.89
2023-05-21T08:06:58.417Z,75.50
2023-05-21T08:09:26.952Z,83.94
2023-05-21T08:11:55.804Z,76.29
2023-05-21T08:14:24.310Z,75.11
2023-05-21T08:16:54.358Z,78.01
2023-05-21T08:19:23.236Z,80.06
2023-05-21T08:21:53.063Z,76.46
2023-05-21T08:24:23.439Z,83.88
2023-05-21T08:26:53.615Z,72.40
2023-05-21T08:29:22.273Z,80.65
2023-05-21T08:31:51.130Z,70.96
2023-05-21T08:34:21.188Z,82.53
2023-05-21T08:36:59.615Z,77.36
2023-05-21T08:39:50.987Z,74.42
2023-05-21T08:45:07.331Z,87.56
2023-05-21T08:47:37.652Z,71.94
2023-05-21T08:50:11.824Z,67.72
2023-05-21T08:52:41.089Z,71.00
2023-05-21T08:55:10.955Z,68.11
2023-05-21T08:57:42.450Z,69.03
2023-05-21T09:00:12.607Z,68.75
2023-05-21T09:02:44.251Z,84.63
2023-05-21T09:05:16.163Z,67.27
2023-05-21T09:07:51.061Z,69.60
2023-05-21T09:10:37.647Z,67.39
2023-05-21T09:13:08.159Z,66.18
2023-05-21T09:15:37.789Z,67.32
2023-05-21T09:18:07.815Z,76.91
2023-05-21T09:20:47.159Z,81.69
2023-05-21T09:23:19.094Z,74.75
2023-05-21T09:25:49.659Z,70.53
2023-05-21T09:28:26.802Z,76.54
2023-05-21T09:30:55.400Z,80.78
2023-05-21T09:33:29.842Z,78.54
2023-05-21T09:36:00.467Z,83.90
2023-05-21T09:38:29.665Z,78.14
2023-05-21T09:40:58.913Z,81.09
2023-05-21T09:43:28.711Z,79.88
2023-05-21T09:46:00.417Z,85.33
2023-05-21T09:48:37.314Z,84.07
2023-05-21T09:51:14.917Z,72.40
2023-05-21T09:53:50.108Z,71.26
2023-05-21T09:56:23.809Z,78.87
2023-05-21T09:58:56.106Z,76.14
2023-05-21T10:01:26.242Z,76.93
2023-05-21T10:03:57.689Z,81.83
2023-05-21T10:06:28.953Z,76.25
2023-05-21T10:08:59.536Z,79.96
2023-05-21T10:11:32.066Z,82.18
2023-05-21T10:14:06.244Z,74.02
2023-05-21T10:16:36.468Z,70.88
2023-05-21T10:19:06.195Z,59.71
2023-05-21T10:21:36.492Z,72.52
2023-05-21T10:24:05.669Z,75.50
2023-05-21T10:26:34.670Z,67.81
2023-05-21T10:29:04.447Z,62.70
2023-05-21T10:31:33.584Z,58.57
2023-05-21T10:34:06.230Z,61.01
2023-05-21T10:36:38.031Z,63.51
2023-05-21T10:39:09.857Z,58.55
2023-05-21T10:41:49.825Z,61.48
2023-05-21T10:44:28.482Z,60.49
2023-05-21T10:47:15.413Z,64.22
2023-05-21T10:50:00.675Z,62.61
2023-05-21T10:52:52.073Z,58.65
2023-05-21T10:55:34.990Z,66.06
2023-05-21T10:58:33.906Z,55.10
2023-05-21T11:01:04.407Z,68.57
2023-05-21T11:03:37.408Z,71.20
2023-05-21T11:06:08.821Z,61.21
2023-05-21T11:08:39.116Z,67.35
2023-05-21T11:11:07.782Z,58.59
2023-05-21T11:13:51.170Z,66.15
2023-05-21T11:16:22.321Z,59.62
2023-05-21T11:19:04.463Z,63.46
2023-05-21T11:21:36.206Z,64.67
2023-05-21T11:24:11.303Z,63.67
2023-05-21T11:27:05.020Z,59.22
2023-05-21T11:29:44.655Z,57.84
2023-05-21T11:32:15.641Z,56.53
2023-05-21T11:34:47.288Z,59.63
2023-05-21T11:37:34.620Z,59.95
2023-05-21T11:40:31.172Z,60.45
2023-05-21T11:42:59.800Z,58.07
2023-05-21T11:45:32.249Z,59.49
2023-05-21T11:48:01.684Z,62.29
2023-05-21T11:50:33.972Z,67.75
2023-05-21T11:53:02.859Z,64.02
2023-05-21T11:55:33.391Z,65.54
2023-05-21T11:58:02.988Z,64.74
2023-05-21T12:00:31.530Z,69.14
2023-05-21T12:03:00.224Z,64.05
2023-05-21T12:05:29.121Z,63.52
2023-05-21T12:07:58.615Z,67.34
2023-05-21T12:10:27.418Z,62.94
2023-05-21T12:12:57.837Z,65.36
2023-05-21T12:15:28.341Z,60.10
2023-05-21T12:17:58.092Z,65.17
2023-05-21T12:20:29.878Z,64.84
2023-05-21T12:23:01.655Z,66.19
2023-05-21T12:25:32.229Z,61.48
2023-05-21T12:28:03.772Z,68.78
2023-05-21T12:30:32.966Z,63.69
2023-05-21T12:33:03.344Z,67.47
2023-05-21T12:35:32.756Z,61.13
2023-05-21T12:38:03.292Z,56.08
2023-05-21T12:40:39.598Z,57.18
2023-05-21T12:43:10.286Z,62.91
2023-05-21T12:45:41.076Z,60.19
2023-05-21T12:48:10.006Z,63.07
2023-05-21T12:50:42.225Z,60.09
2023-05-21T12:53:11.400Z,74.74
2023-05-21T12:55:40.825Z,58.30
2023-05-21T12:58:15.663Z,57.40
2023-05-21T13:00:45.683Z,61.88
2023-05-21T13:03:14.685Z,58.43
2023-05-21T13:05:43.359Z,69.79
2023-05-21T13:08:14.572Z,61.05
2023-05-21T13:10:43.504Z,63.14
2023-05-21T13:13:13.512Z,59.09
2023-05-21T13:15:42.080Z,60.42
2023-05-21T13:18:12.635Z,56.88
2023-05-21T13:20:41.340Z,57.71
2023-05-21T13:23:11.446Z,59.59
2023-05-21T13:25:41.368Z,61.41
2023-05-21T13:28:10.708Z,56.06
2023-05-21T13:30:40.863Z,61.41
2023-05-21T13:33:09.571Z,61.40
2023-05-21T13:35:38.158Z,59.45
2023-05-21T13:38:06.681Z,62.48
2023-05-21T13:40:38.064Z,61.99
2023-05-21T13:43:07.445Z,62.27
2023-05-21T13:45:36.050Z,60.09
2023-05-21T13:48:06.779Z,58.17
2023-05-21T13:50:35.747Z,62.51
2023-05-21T13:53:04.574Z,59.73
2023-05-21T13:55:33.095Z,57.79
2023-05-21T13:58:01.556Z,61.17
2023-05-21T14:00:30.034Z,62.19
2023-05-21T14:02:58.854Z,62.58
2023-05-21T14:05:28.923Z,63.33
2023-05-21T14:07:57.384Z,62.38
2023-05-21T14:10:26.103Z,61.27
2023-05-21T14:12:59.212Z,61.24
2023-05-21T14:15:33.673Z,62.78
2023-05-21T14:18:02.319Z,58.55
2023-05-21T14:20:32.393Z,60.52
2023-05-21T14:23:01.012Z,59.99
2023-05-21T14:25:29.679Z,56.50
2023-05-21T14:27:58.372Z,64.17
2023-05-21T14:30:26.929Z,60.74
2023-05-21T14:32:57.815Z,62.74
2023-05-21T14:35:26.556Z,61.16
2023-05-21T14:37:56.590Z,61.48
2023-05-21T14:40:25.218Z,57.32
2023-05-21T14:42:54.491Z,61.71
2023-05-21T14:45:23.149Z,63.99
2023-05-21T14:47:51.897Z,57.96
2023-05-21T14:50:20.495Z,58.86
2023-05-21T14:52:49.076Z,62.20
2023-05-21T14:55:22.523Z,65.97
2023-05-21T14:57:51.257Z,65.79
2023-05-21T15:00:19.995Z,62.09
2023-05-21T15:02:48.940Z,70.60
2023-05-21T15:05:17.745Z,70.17
2023-05-21T15:07:46.331Z,64.98
2023-05-21T15:10:17.280Z,71.65
2023-05-21T15:12:48.745Z,72.76
2023-05-21T15:15:17.519Z,64.62
2023-05-21T15:17:46.288Z,65.36
2023-05-21T15:20:15.659Z,65.20
2023-05-21T15:22:44.300Z,64.06
2023-05-21T15:25:13.159Z,61.29
2023-05-21T15:27:41.903Z,65.22
2023-05-21T15:30:12.702Z,64.76
2023-05-21T15:32:40.997Z,65.57
2023-05-21T15:35:10.494Z,62.53
2023-05-21T15:37:39.163Z,63.53
2023-05-21T15:40:09.440Z,63.28
2023-05-21T15:42:38.033Z,63.61
2023-05-21T15:45:07.514Z,69.48
2023-05-21T15:47:42.719Z,69.48
2023-05-21T15:50:12.677Z,68.59
2023-05-21T15:52:43.003Z,69.94
2023-05-21T15:55:11.721Z,82.02
2023-05-21T15:57:40.338Z,97.51
2023-05-21T16:00:11.021Z,75.32
2023-05-21T16:02:42.299Z,71.79
2023-05-21T16:05:11.535Z,68.81
2023-05-21T16:07:40.098Z,82.07
2023-05-21T16:10:11.728Z,69.52
2023-05-21T16:12:40.514Z,69.73
2023-05-21T16:15:09.928Z,83.30
2023-05-21T16:17:38.689Z,85.71
2023-05-21T16:20:09.906Z,76.69
2023-05-21T16:22:38.558Z,82.26
2023-05-21T16:25:08.251Z,74.97
2023-05-21T16:27:36.800Z,94.01
2023-05-21T16:30:07.619Z,82.11
2023-05-21T16:32:35.952Z,80.99
2023-05-21T16:35:05.009Z,80.40
2023-05-21T16:37:35.560Z,77.43
2023-05-21T16:40:04.879Z,84.49
2023-05-21T16:42:33.442Z,73.13
2023-05-21T16:45:02.043Z,68.00
2023-05-21T16:47:30.620Z,65.34
2023-05-21T16:49:59.290Z,70.07
2023-05-21T16:52:28.046Z,73.94
2023-05-21T16:54:58.087Z,65.35
2023-05-21T16:57:26.626Z,69.94
2023-05-21T16:59:55.224Z,67.04
2023-05-21T17:02:24.604Z,64.62
2023-05-21T17:04:53.195Z,69.90
2023-05-21T17:07:21.962Z,72.39
2023-05-21T17:09:50.837Z,74.38
2023-05-21T17:12:20.888Z,79.75
2023-05-21T17:14:49.463Z,74.64
2023-05-21T17:17:18.045Z,69.58
2023-05-21T17:19:46.609Z,75.28
2023-05-21T17:22:15.617Z,78.70
2023-05-21T17:24:44.241Z,81.54
2023-05-21T17:27:12.945Z,83.07
2023-05-21T17:29:42.954Z,83.29
2023-05-21T17:32:12.526Z,84.74
2023-05-21T17:34:41.123Z,92.44
2023-05-21T17:37:09.747Z,85.16
2023-05-21T17:39:38.285Z,90.55
2023-05-21T17:42:07.413Z,91.39
2023-05-21T17:44:36.025Z,93.54
2023-05-21T17:47:08.305Z,94.56
2023-05-21T17:49:36.972Z,95.22
2023-05-21T17:52:06.024Z,93.84
2023-05-21T17:54:35.253Z,91.83
2023-05-21T17:57:04.076Z,92.78
2023-05-21T17:59:32.768Z,99.40
2023-05-21T18:02:02.398Z,100.00
2023-05-21T18:04:32.445Z,100.00
2023-05-21T18:07:01.327Z,100.00
2023-05-21T18:09:30.010Z,100.00
2023-05-21T18:11:59.841Z,100.00
2023-05-21T18:14:29.479Z,100.00
2023-05-21T18:16:58.193Z,100.00
2023-05-21T18:19:26.929Z,100.00
2023-05-21T18:21:57.145Z,100.00
2023-05-21T18:24:25.966Z,100.00
2023-05-21T18:26:54.535Z,100.00
2023-05-21T18:29:23.081Z,100.00
2023-05-21T18:31:51.826Z,100.00
2023-05-21T18:34:20.297Z,100.00
2023-05-21T18:36:48.863Z,100.00
2023-05-21T18:39:18.838Z,100.00
2023-05-21T18:41:47.314Z,100.00
2023-05-21T18:44:16.335Z,100.00
2023-05-21T18:46:45.468Z,100.00
2023-05-21T18:49:13.988Z,100.00
2023-05-21T18:51:42.621Z,100.00
2023-05-21T18:54:11.228Z,100.00
2023-05-21T18:56:41.298Z,100.00
2023-05-21T18:59:09.941Z,100.00
2023-05-21T19:01:38.553Z,100.00
2023-05-21T19:04:07.114Z,100.00
2023-05-21T19:06:36.114Z,100.00
2023-05-21T19:09:04.979Z,100.00
2023-05-21T19:11:34.608Z,100.00
2023-05-21T19:14:04.737Z,100.00
2023-05-21T19:16:33.436Z,100.00
2023-05-21T19:19:02.504Z,100.00
2023-05-21T19:21:31.687Z,100.00
2023-05-21T19:24:00.332Z,100.00
2023-05-21T19:26:29.127Z,100.00
2023-05-21T19:28:57.779Z,100.00
2023-05-21T19:31:28.059Z,100.00
2023-05-21T19:33:56.786Z,100.00
2023-05-21T19:36:26.881Z,100.00
2023-05-21T19:38:59.049Z,100.00
2023-05-21T19:41:27.902Z,100.00
2023-05-21T19:43:56.422Z,100.00
2023-05-21T19:46:25.274Z,100.00
2023-05-21T19:48:55.282Z,100.00
2023-05-21T19:51:24.008Z,100.00
2023-05-21T19:53:52.723Z,100.00
2023-05-21T19:56:22.117Z,100.00
2023-05-21T19:58:50.769Z,100.00
2023-05-21T20:01:19.565Z,100.00
2023-05-21T20:03:48.453Z,100.00
2023-05-21T20:06:20.876Z,100.00
2023-05-21T20:08:49.446Z,100.00
2023-05-21T20:11:18.000Z,100.00
2023-05-21T20:13:50.261Z,100.00
2023-05-21T20:16:20.279Z,100.00
2023-05-21T20:18:49.305Z,100.00
2023-05-21T20:21:20.510Z,100.00
2023-05-21T20:23:49.887Z,100.00
2023-05-21T20:26:19.773Z,100.00
2023-05-21T20:28:48.480Z,100.00
2023-05-21T20:31:17.074Z,100.00
2023-05-21T20:33:46.575Z,100.00
2023-05-21T20:36:15.564Z,100.00
2023-05-21T20:38:45.810Z,100.00
2023-05-21T20:41:15.134Z,100.00
2023-05-21T20:43:46.129Z,100.00
2023-05-21T20:46:17.874Z,100.00
2023-05-21T20:48:47.510Z,100.00
2023-05-21T20:51:16.044Z,100.00
2023-05-21T20:53:46.121Z,100.00
2023-05-21T20:56:15.091Z,100.00
2023-05-21T20:58:43.977Z,100.00
2023-05-21T21:01:14.640Z,100.00
2023-05-21T21:03:45.857Z,100.00
2023-05-21T21:06:14.803Z,100.00
2023-05-21T21:08:46.357Z,100.00
2023-05-21T21:11:16.462Z,100.00
2023-05-21T21:13:44.938Z,100.00
2023-05-21T21:16:13.608Z,100.00
2023-05-21T21:18:42.347Z,100.00
2023-05-21T21:21:10.944Z,100.00
2023-05-21T21:23:39.677Z,100.00
2023-05-21T21:26:08.365Z,100.00
2023-05-21T21:28:38.379Z,100.00
2023-05-21T21:31:07.128Z,100.00
2023-05-21T21:33:35.511Z,100.00
2023-05-21T21:36:04.027Z,100.00
2023-05-21T21:38:32.708Z,100.00
2023-05-21T21:41:01.372Z,100.00
2023-05-21T21:43:29.884Z,100.00
2023-05-21T21:46:00.216Z,100.00
2023-05-21T21:48:28.832Z,100.00
2023-05-21T21:50:57.663Z,100.00
2023-05-21T21:53:26.262Z,100.00
2023-05-21T21:55:56.058Z,100.00
2023-05-21T21:58:27.923Z,100.00
2023-05-21T22:00:56.629Z,100.00
2023-05-21T22:03:26.627Z,100.00
2023-05-21T22:05:55.717Z,100.00
2023-05-21T22:08:25.762Z,100.00
2023-05-21T22:10:54.390Z,100.00
2023-05-21T22:13:23.002Z,100.00
2023-05-21T22:15:51.752Z,100.00
2023-05-21T22:18:28.440Z,100.00
2023-05-21T22:21:10.197Z,100.00
2023-05-21T22:23:39.468Z,100.00
2023-05-21T22:26:08.197Z,100.00
2023-05-21T22:28:37.054Z,100.00
2023-05-21T22:31:06.052Z,100.00
2023-05-21T22:33:34.728Z,100.00
2023-05-21T22:36:03.208Z,100.00
2023-05-21T22:38:33.185Z,100.00
2023-05-21T22:41:01.808Z,100.00
2023-05-21T22:43:30.420Z,100.00
2023-05-21T22:45:58.888Z,100.00
2023-05-21T22:48:30.727Z,100.00
2023-05-21T22:50:59.652Z,100.00
2023-05-21T22:53:28.125Z,100.00
2023-05-21T22:55:58.304Z,100.00
2023-05-21T22:58:27.011Z,100.00
2023-05-21T23:00:55.646Z,100.00
2023-05-21T23:03:24.231Z,100.00
2023-05-21T23:05:52.883Z,100.00
2023-05-21T23:08:21.391Z,100.00
2023-05-21T23:10:49.993Z,100.00
2023-05-21T23:13:20.029Z,100.00
2023-05-21T23:15:48.725Z,100.00
2023-05-21T23:18:17.646Z,100.00
2023-05-21T23:20:46.317Z,100.00
2023-05-21T23:23:14.775Z,100.00
2023-05-21T23:25:43.372Z,100.00
2023-05-21T23:28:11.833Z,100.00
2023-05-21T23:30:41.945Z,100.00
2023-05-21T23:33:11.201Z,100.00
2023-05-21T23:35:39.714Z,100.00
2023-05-21T23:38:08.183Z,100.00
2023-05-21T23:40:37.393Z,100.00
2023-05-21T23:43:06.229Z,100.00
2023-05-21T23:45:34.922Z,100.00
2023-05-21T23:48:05.488Z,100.00
2023-05-21T23:50:34.241Z,100.00
2023-05-21T23:53:02.763Z,100.00
2023-05-21T23:55:31.348Z,100.00
2023-05-21T23:57:59.758Z,100.00
